sensor_id;sensor_type;location;lat;lon;timestamp;pressure;altitude;pressure_sealevel;temperature;humidity
64200;BME280;50516;52.272;5.136;2023-02-26T00:00:25;101951.84;;;4.37;60.32
64200;BME280;50516;52.272;5.136;2023-02-26T00:02:50;101952.88;;;4.36;60.61
64200;BME280;50516;52.272;5.136;2023-02-26T00:05:15;101945.97;;;4.33;60.27
64200;BME280;50516;52.272;5.136;2023-02-26T00:07:41;101945.59;;;4.43;60.54
64200;BME280;50516;52.272;5.136;2023-02-26T00:10:10;101961.91;;;4.43;60.66
64200;BME280;50516;52.272;5.136;2023-02-26T00:12:36;101961.72;;;4.45;60.82
64200;BME280;50516;52.272;5.136;2023-02-26T00:15:03;101969.66;;;4.46;60.73
64200;BME280;50516;52.272;5.136;2023-02-26T00:19:57;101983.88;;;4.48;60.86
64200;BME280;50516;52.272;5.136;2023-02-26T00:22:23;101987.22;;;4.50;60.95
64200;BME280;50516;52.272;5.136;2023-02-26T00:24:48;101982.44;;;4.46;60.89
64200;BME280;50516;52.272;5.136;2023-02-26T00:27:14;101991.00;;;4.43;60.96
64200;BME280;50516;52.272;5.136;2023-02-26T00:29:40;101984.78;;;4.14;61.17
64200;BME280;50516;52.272;5.136;2023-02-26T00:32:10;102011.00;;;3.93;60.31
64200;BME280;50516;52.272;5.136;2023-02-26T00:34:35;102004.50;;;3.88;58.90
64200;BME280;50516;52.272;5.136;2023-02-26T00:37:27;102020.06;;;3.72;58.25
64200;BME280;50516;52.272;5.136;2023-02-26T00:42:39;102031.63;;;3.53;57.77
64200;BME280;50516;52.272;5.136;2023-02-26T00:45:05;102030.69;;;3.45;57.60
64200;BME280;50516;52.272;5.136;2023-02-26T00:47:41;102025.28;;;3.45;57.89
64200;BME280;50516;52.272;5.136;2023-02-26T00:50:17;102031.22;;;3.34;57.32
64200;BME280;50516;52.272;5.136;2023-02-26T00:55:14;102030.09;;;3.22;56.97
64200;BME280;50516;52.272;5.136;2023-02-26T00:57:39;102036.16;;;3.24;56.99
64200;BME280;50516;52.272;5.136;2023-02-26T01:00:06;102044.31;;;3.24;57.06
64200;BME280;50516;52.272;5.136;2023-02-26T01:02:36;102036.56;;;3.42;56.92
64200;BME280;50516;52.272;5.136;2023-02-26T01:05:03;102042.75;;;3.36;56.95
64200;BME280;50516;52.272;5.136;2023-02-26T01:07:31;102042.75;;;3.36;57.14
64200;BME280;50516;52.272;5.136;2023-02-26T01:09:59;102050.13;;;3.21;57.23
64200;BME280;50516;52.272;5.136;2023-02-26T01:12:24;102051.53;;;3.38;57.35
64200;BME280;50516;52.272;5.136;2023-02-26T01:14:50;102056.06;;;3.31;56.90
64200;BME280;50516;52.272;5.136;2023-02-26T01:17:37;102048.56;;;3.33;57.04
64200;BME280;50516;52.272;5.136;2023-02-26T01:20:13;102064.22;;;3.31;56.73
64200;BME280;50516;52.272;5.136;2023-02-26T01:25:11;102059.09;;;3.43;56.42
64200;BME280;50516;52.272;5.136;2023-02-26T01:27:37;102067.69;;;3.46;56.32
64200;BME280;50516;52.272;5.136;2023-02-26T01:30:04;102068.59;;;3.32;56.14
64200;BME280;50516;52.272;5.136;2023-02-26T01:32:46;102070.75;;;3.37;56.36
64200;BME280;50516;52.272;5.136;2023-02-26T01:35:38;102061.38;;;3.39;56.16
64200;BME280;50516;52.272;5.136;2023-02-26T01:38:10;102057.81;;;3.39;55.83
64200;BME280;50516;52.272;5.136;2023-02-26T01:48:52;102078.81;;;3.08;55.55
64200;BME280;50516;52.272;5.136;2023-02-26T01:54:06;102089.75;;;3.15;56.25
64200;BME280;50516;52.272;5.136;2023-02-26T01:56:31;102081.78;;;3.14;55.93
64200;BME280;50516;52.272;5.136;2023-02-26T01:58:57;102088.69;;;3.16;56.01
64200;BME280;50516;52.272;5.136;2023-02-26T02:01:23;102083.50;;;3.21;56.10
64200;BME280;50516;52.272;5.136;2023-02-26T02:03:49;102089.88;;;3.28;56.31
64200;BME280;50516;52.272;5.136;2023-02-26T02:06:19;102098.28;;;3.34;56.40
64200;BME280;50516;52.272;5.136;2023-02-26T02:08:45;102097.56;;;3.25;56.00
64200;BME280;50516;52.272;5.136;2023-02-26T02:11:12;102103.75;;;3.19;56.15
64200;BME280;50516;52.272;5.136;2023-02-26T02:28:25;102122.72;;;2.82;55.73
64200;BME280;50516;52.272;5.136;2023-02-26T02:34:01;102124.13;;;2.93;55.20
64200;BME280;50516;52.272;5.136;2023-02-26T02:39:45;102124.19;;;3.00;54.74
64200;BME280;50516;52.272;5.136;2023-02-26T02:44:40;102127.47;;;2.95;55.18
64200;BME280;50516;52.272;5.136;2023-02-26T02:47:09;102119.81;;;2.84;54.39
64200;BME280;50516;52.272;5.136;2023-02-26T02:49:44;102122.16;;;2.87;54.57
64200;BME280;50516;52.272;5.136;2023-02-26T02:52:24;102141.91;;;2.81;54.76
64200;BME280;50516;52.272;5.136;2023-02-26T02:54:58;102134.81;;;2.80;54.20
64200;BME280;50516;52.272;5.136;2023-02-26T02:57:33;102145.28;;;2.83;54.63
64200;BME280;50516;52.272;5.136;2023-02-26T03:00:10;102140.25;;;2.80;54.31
64200;BME280;50516;52.272;5.136;2023-02-26T03:02:56;102142.19;;;2.86;54.56
64200;BME280;50516;52.272;5.136;2023-02-26T03:05:24;102149.78;;;2.76;54.75
64200;BME280;50516;52.272;5.136;2023-02-26T03:07:56;102158.19;;;2.81;54.79
64200;BME280;50516;52.272;5.136;2023-02-26T03:10:23;102153.22;;;2.69;54.14
64200;BME280;50516;52.272;5.136;2023-02-26T03:12:48;102157.72;;;2.62;54.75
64200;BME280;50516;52.272;5.136;2023-02-26T03:15:25;102149.03;;;2.67;54.94
64200;BME280;50516;52.272;5.136;2023-02-26T03:18:20;102150.59;;;2.76;54.38
64200;BME280;50516;52.272;5.136;2023-02-26T03:21:03;102154.81;;;2.79;54.68
64200;BME280;50516;52.272;5.136;2023-02-26T03:23:39;102150.03;;;2.81;54.78
64200;BME280;50516;52.272;5.136;2023-02-26T03:26:13;102159.59;;;2.77;55.00
64200;BME280;50516;52.272;5.136;2023-02-26T03:28:55;102166.59;;;2.71;54.89
64200;BME280;50516;52.272;5.136;2023-02-26T03:31:39;102174.81;;;2.78;54.96
64200;BME280;50516;52.272;5.136;2023-02-26T03:34:14;102167.56;;;2.63;55.10
64200;BME280;50516;52.272;5.136;2023-02-26T03:37:15;102164.44;;;2.66;55.11
64200;BME280;50516;52.272;5.136;2023-02-26T03:39:49;102169.41;;;2.48;55.01
64200;BME280;50516;52.272;5.136;2023-02-26T03:44:51;102187.38;;;2.49;55.53
64200;BME280;50516;52.272;5.136;2023-02-26T03:47:18;102182.31;;;2.46;55.21
64200;BME280;50516;52.272;5.136;2023-02-26T03:49:54;102181.63;;;2.44;55.49
64200;BME280;50516;52.272;5.136;2023-02-26T03:52:26;102183.06;;;2.54;55.24
64200;BME280;50516;52.272;5.136;2023-02-26T03:55:03;102197.19;;;2.65;55.35
64200;BME280;50516;52.272;5.136;2023-02-26T03:57:29;102199.31;;;2.54;55.21
64200;BME280;50516;52.272;5.136;2023-02-26T03:59:55;102199.69;;;2.66;55.20
64200;BME280;50516;52.272;5.136;2023-02-26T04:02:29;102200.75;;;2.65;55.28
64200;BME280;50516;52.272;5.136;2023-02-26T04:05:00;102201.03;;;2.70;54.89
64200;BME280;50516;52.272;5.136;2023-02-26T04:07:27;102197.94;;;2.59;55.59
64200;BME280;50516;52.272;5.136;2023-02-26T04:09:53;102205.22;;;2.58;55.70
64200;BME280;50516;52.272;5.136;2023-02-26T04:12:24;102220.38;;;2.52;55.82
64200;BME280;50516;52.272;5.136;2023-02-26T04:14:49;102217.47;;;2.54;55.65
64200;BME280;50516;52.272;5.136;2023-02-26T04:17:21;102216.75;;;2.60;55.91
64200;BME280;50516;52.272;5.136;2023-02-26T04:19:47;102223.09;;;2.67;55.20
64200;BME280;50516;52.272;5.136;2023-02-26T04:22:12;102228.25;;;2.62;55.92
64200;BME280;50516;52.272;5.136;2023-02-26T04:24:38;102224.75;;;2.53;55.38
64200;BME280;50516;52.272;5.136;2023-02-26T04:27:03;102231.59;;;2.49;55.64
64200;BME280;50516;52.272;5.136;2023-02-26T04:29:29;102236.00;;;2.65;55.43
64200;BME280;50516;52.272;5.136;2023-02-26T04:31:54;102232.13;;;2.45;55.22
64200;BME280;50516;52.272;5.136;2023-02-26T04:34:19;102232.97;;;2.45;55.76
64200;BME280;50516;52.272;5.136;2023-02-26T04:36:45;102238.09;;;2.40;55.15
64200;BME280;50516;52.272;5.136;2023-02-26T04:39:11;102235.56;;;2.38;54.97
64200;BME280;50516;52.272;5.136;2023-02-26T04:41:37;102244.34;;;2.41;55.48
64200;BME280;50516;52.272;5.136;2023-02-26T04:44:03;102234.81;;;2.30;54.99
64200;BME280;50516;52.272;5.136;2023-02-26T04:46:30;102232.41;;;2.50;55.03
64200;BME280;50516;52.272;5.136;2023-02-26T04:48:55;102240.53;;;2.35;55.43
64200;BME280;50516;52.272;5.136;2023-02-26T04:51:21;102247.03;;;2.26;55.34
64200;BME280;50516;52.272;5.136;2023-02-26T04:53:46;102248.13;;;2.40;55.40
64200;BME280;50516;52.272;5.136;2023-02-26T04:56:11;102254.84;;;2.44;55.16
64200;BME280;50516;52.272;5.136;2023-02-26T04:58:37;102260.50;;;2.34;55.69
64200;BME280;50516;52.272;5.136;2023-02-26T05:01:03;102257.69;;;2.27;55.54
64200;BME280;50516;52.272;5.136;2023-02-26T05:03:28;102272.66;;;2.23;55.90
64200;BME280;50516;52.272;5.136;2023-02-26T05:05:54;102272.09;;;2.28;55.90
64200;BME280;50516;52.272;5.136;2023-02-26T05:08:19;102278.25;;;2.22;56.75
64200;BME280;50516;52.272;5.136;2023-02-26T05:10:45;102279.91;;;2.23;56.52
64200;BME280;50516;52.272;5.136;2023-02-26T05:13:10;102289.94;;;2.22;56.78
64200;BME280;50516;52.272;5.136;2023-02-26T05:15:35;102283.13;;;2.26;57.16
64200;BME280;50516;52.272;5.136;2023-02-26T05:18:01;102295.75;;;2.11;57.16
64200;BME280;50516;52.272;5.136;2023-02-26T05:20:27;102294.94;;;2.10;57.47
64200;BME280;50516;52.272;5.136;2023-02-26T05:22:52;102302.13;;;2.18;57.10
64200;BME280;50516;52.272;5.136;2023-02-26T05:25:18;102291.69;;;2.15;57.03
64200;BME280;50516;52.272;5.136;2023-02-26T05:27:44;102298.72;;;2.24;56.91
64200;BME280;50516;52.272;5.136;2023-02-26T05:30:12;102301.78;;;2.21;57.18
64200;BME280;50516;52.272;5.136;2023-02-26T05:32:38;102300.06;;;2.05;57.20
64200;BME280;50516;52.272;5.136;2023-02-26T05:35:04;102295.13;;;2.09;57.27
64200;BME280;50516;52.272;5.136;2023-02-26T05:37:30;102305.94;;;2.09;57.32
64200;BME280;50516;52.272;5.136;2023-02-26T05:39:55;102312.31;;;2.16;57.22
64200;BME280;50516;52.272;5.136;2023-02-26T05:42:20;102311.19;;;2.10;56.82
64200;BME280;50516;52.272;5.136;2023-02-26T05:44:46;102311.09;;;1.95;56.61
64200;BME280;50516;52.272;5.136;2023-02-26T05:47:11;102312.63;;;1.98;56.50
64200;BME280;50516;52.272;5.136;2023-02-26T05:49:37;102314.13;;;2.00;57.02
64200;BME280;50516;52.272;5.136;2023-02-26T05:52:02;102325.16;;;1.99;57.43
64200;BME280;50516;52.272;5.136;2023-02-26T05:54:28;102322.56;;;2.06;57.38
64200;BME280;50516;52.272;5.136;2023-02-26T05:56:53;102316.06;;;2.15;57.26
64200;BME280;50516;52.272;5.136;2023-02-26T05:59:20;102329.66;;;2.07;57.10
64200;BME280;50516;52.272;5.136;2023-02-26T06:01:45;102329.66;;;2.07;58.08
64200;BME280;50516;52.272;5.136;2023-02-26T06:04:11;102336.41;;;2.11;57.20
64200;BME280;50516;52.272;5.136;2023-02-26T06:06:38;102337.66;;;2.00;57.93
64200;BME280;50516;52.272;5.136;2023-02-26T06:09:04;102346.47;;;2.02;57.80
64200;BME280;50516;52.272;5.136;2023-02-26T06:11:29;102362.38;;;2.05;57.83
64200;BME280;50516;52.272;5.136;2023-02-26T06:13:55;102368.97;;;2.03;57.73
64200;BME280;50516;52.272;5.136;2023-02-26T06:16:20;102362.09;;;2.23;58.02
64200;BME280;50516;52.272;5.136;2023-02-26T06:18:46;102355.69;;;2.16;57.85
64200;BME280;50516;52.272;5.136;2023-02-26T06:21:12;102366.81;;;2.21;57.12
64200;BME280;50516;52.272;5.136;2023-02-26T06:23:38;102379.34;;;1.99;58.06
64200;BME280;50516;52.272;5.136;2023-02-26T06:26:03;102371.09;;;2.15;58.32
64200;BME280;50516;52.272;5.136;2023-02-26T06:28:29;102379.06;;;2.17;58.09
64200;BME280;50516;52.272;5.136;2023-02-26T06:30:54;102396.41;;;2.31;57.30
64200;BME280;50516;52.272;5.136;2023-02-26T06:33:20;102390.84;;;2.24;57.35
64200;BME280;50516;52.272;5.136;2023-02-26T06:35:45;102400.72;;;2.17;57.56
64200;BME280;50516;52.272;5.136;2023-02-26T06:38:11;102397.97;;;2.25;57.39
64200;BME280;50516;52.272;5.136;2023-02-26T06:40:36;102400.69;;;2.25;57.93
64200;BME280;50516;52.272;5.136;2023-02-26T06:43:02;102412.72;;;2.23;57.40
64200;BME280;50516;52.272;5.136;2023-02-26T06:45:27;102418.66;;;2.26;57.78
64200;BME280;50516;52.272;5.136;2023-02-26T06:47:53;102416.72;;;2.35;57.63
64200;BME280;50516;52.272;5.136;2023-02-26T06:50:18;102421.38;;;2.18;57.36
64200;BME280;50516;52.272;5.136;2023-02-26T06:52:43;102421.59;;;2.16;57.13
64200;BME280;50516;52.272;5.136;2023-02-26T06:55:09;102416.34;;;2.15;57.47
64200;BME280;50516;52.272;5.136;2023-02-26T06:57:35;102422.31;;;2.33;57.26
64200;BME280;50516;52.272;5.136;2023-02-26T07:00:01;102427.38;;;2.36;57.33
64200;BME280;50516;52.272;5.136;2023-02-26T07:02:27;102434.50;;;2.37;57.28
64200;BME280;50516;52.272;5.136;2023-02-26T07:04:52;102432.75;;;2.45;56.79
64200;BME280;50516;52.272;5.136;2023-02-26T07:07:17;102433.72;;;2.52;56.54
64200;BME280;50516;52.272;5.136;2023-02-26T07:09:43;102450.72;;;2.46;56.93
64200;BME280;50516;52.272;5.136;2023-02-26T07:12:09;102444.03;;;2.80;56.02
64200;BME280;50516;52.272;5.136;2023-02-26T07:14:34;102461.75;;;2.67;55.99
64200;BME280;50516;52.272;5.136;2023-02-26T07:17:00;102456.56;;;2.81;55.62
64200;BME280;50516;52.272;5.136;2023-02-26T07:19:26;102451.03;;;2.74;55.55
64200;BME280;50516;52.272;5.136;2023-02-26T07:21:51;102460.13;;;2.58;56.22
64200;BME280;50516;52.272;5.136;2023-02-26T07:24:19;102478.50;;;2.71;55.56
64200;BME280;50516;52.272;5.136;2023-02-26T07:26:45;102473.81;;;2.88;55.08
64200;BME280;50516;52.272;5.136;2023-02-26T07:29:10;102472.34;;;3.00;55.27
64200;BME280;50516;52.272;5.136;2023-02-26T07:31:39;102477.59;;;3.02;55.36
64200;BME280;50516;52.272;5.136;2023-02-26T07:34:04;102477.66;;;2.93;55.18
64200;BME280;50516;52.272;5.136;2023-02-26T07:36:29;102488.75;;;2.84;55.50
64200;BME280;50516;52.272;5.136;2023-02-26T07:38:55;102485.75;;;3.02;55.16
64200;BME280;50516;52.272;5.136;2023-02-26T07:41:20;102501.19;;;3.01;54.49
64200;BME280;50516;52.272;5.136;2023-02-26T07:43:46;102496.75;;;3.08;54.50
64200;BME280;50516;52.272;5.136;2023-02-26T07:46:11;102494.38;;;3.05;54.03
64200;BME280;50516;52.272;5.136;2023-02-26T07:48:42;102496.59;;;3.02;54.79
64200;BME280;50516;52.272;5.136;2023-02-26T07:51:08;102498.78;;;3.06;54.04
64200;BME280;50516;52.272;5.136;2023-02-26T07:53:35;102515.22;;;3.05;54.18
64200;BME280;50516;52.272;5.136;2023-02-26T07:56:00;102505.41;;;3.27;54.20
64200;BME280;50516;52.272;5.136;2023-02-26T07:58:26;102500.34;;;3.24;53.91
64200;BME280;50516;52.272;5.136;2023-02-26T08:00:51;102522.53;;;3.04;53.48
64200;BME280;50516;52.272;5.136;2023-02-26T08:03:18;102508.50;;;3.01;53.40
64200;BME280;50516;52.272;5.136;2023-02-26T08:05:46;102504.44;;;2.97;53.57
64200;BME280;50516;52.272;5.136;2023-02-26T08:08:11;102519.53;;;2.99;53.44
64200;BME280;50516;52.272;5.136;2023-02-26T08:10:37;102524.53;;;3.10;53.29
64200;BME280;50516;52.272;5.136;2023-02-26T08:13:03;102530.72;;;3.19;52.79
64200;BME280;50516;52.272;5.136;2023-02-26T08:15:29;102522.63;;;3.34;53.11
64200;BME280;50516;52.272;5.136;2023-02-26T08:17:54;102529.75;;;3.35;52.48
64200;BME280;50516;52.272;5.136;2023-02-26T08:20:21;102529.66;;;3.28;52.29
64200;BME280;50516;52.272;5.136;2023-02-26T08:22:49;102544.00;;;3.37;53.05
64200;BME280;50516;52.272;5.136;2023-02-26T08:25:15;102547.88;;;3.20;52.83
64200;BME280;50516;52.272;5.136;2023-02-26T08:27:40;102538.69;;;3.21;52.64
64200;BME280;50516;52.272;5.136;2023-02-26T08:30:07;102553.53;;;3.33;52.29
64200;BME280;50516;52.272;5.136;2023-02-26T08:32:32;102558.09;;;3.56;52.53
64200;BME280;50516;52.272;5.136;2023-02-26T08:34:58;102560.91;;;3.47;51.42
64200;BME280;50516;52.272;5.136;2023-02-26T08:37:23;102559.19;;;3.46;51.65
64200;BME280;50516;52.272;5.136;2023-02-26T08:39:50;102572.53;;;3.56;51.26
64200;BME280;50516;52.272;5.136;2023-02-26T08:42:16;102566.06;;;3.57;51.70
64200;BME280;50516;52.272;5.136;2023-02-26T08:44:42;102569.91;;;3.63;51.10
64200;BME280;50516;52.272;5.136;2023-02-26T08:47:08;102566.75;;;3.74;51.31
64200;BME280;50516;52.272;5.136;2023-02-26T08:49:33;102575.78;;;3.52;50.97
64200;BME280;50516;52.272;5.136;2023-02-26T08:51:59;102572.34;;;3.58;50.44
64200;BME280;50516;52.272;5.136;2023-02-26T08:54:24;102574.63;;;3.69;50.86
64200;BME280;50516;52.272;5.136;2023-02-26T08:56:50;102577.25;;;3.77;50.87
64200;BME280;50516;52.272;5.136;2023-02-26T08:59:17;102575.44;;;4.08;50.50
64200;BME280;50516;52.272;5.136;2023-02-26T09:01:43;102581.13;;;3.98;49.39
64200;BME280;50516;52.272;5.136;2023-02-26T09:04:08;102580.13;;;3.99;49.76
64200;BME280;50516;52.272;5.136;2023-02-26T09:06:33;102599.78;;;4.01;48.92
64200;BME280;50516;52.272;5.136;2023-02-26T09:08:59;102595.94;;;3.95;49.21
64200;BME280;50516;52.272;5.136;2023-02-26T09:11:24;102601.47;;;4.02;49.14
64200;BME280;50516;52.272;5.136;2023-02-26T09:13:49;102598.97;;;4.30;49.35
64200;BME280;50516;52.272;5.136;2023-02-26T09:16:15;102606.94;;;4.32;48.74
64200;BME280;50516;52.272;5.136;2023-02-26T09:18:41;102607.88;;;4.39;48.66
64200;BME280;50516;52.272;5.136;2023-02-26T09:21:13;102615.66;;;4.42;48.71
64200;BME280;50516;52.272;5.136;2023-02-26T09:23:38;102601.41;;;4.40;48.55
64200;BME280;50516;52.272;5.136;2023-02-26T09:26:03;102620.53;;;4.32;48.54
64200;BME280;50516;52.272;5.136;2023-02-26T09:28:29;102619.13;;;4.21;48.90
64200;BME280;50516;52.272;5.136;2023-02-26T09:30:55;102624.84;;;4.26;48.74
64200;BME280;50516;52.272;5.136;2023-02-26T09:33:21;102633.09;;;4.18;48.86
64200;BME280;50516;52.272;5.136;2023-02-26T09:35:48;102631.31;;;4.25;48.74
64200;BME280;50516;52.272;5.136;2023-02-26T09:38:14;102637.88;;;4.31;49.21
64200;BME280;50516;52.272;5.136;2023-02-26T09:40:47;102642.66;;;4.29;48.73
64200;BME280;50516;52.272;5.136;2023-02-26T09:46:21;102633.41;;;4.38;49.07
64200;BME280;50516;52.272;5.136;2023-02-26T09:48:52;102641.66;;;4.30;49.04
64200;BME280;50516;52.272;5.136;2023-02-26T09:51:21;102647.84;;;4.38;49.02
64200;BME280;50516;52.272;5.136;2023-02-26T09:53:48;102645.19;;;4.45;49.08
64200;BME280;50516;52.272;5.136;2023-02-26T09:56:18;102639.78;;;4.75;48.76
64200;BME280;50516;52.272;5.136;2023-02-26T09:58:46;102647.75;;;4.77;48.50
64200;BME280;50516;52.272;5.136;2023-02-26T10:01:31;102647.72;;;4.62;48.67
64200;BME280;50516;52.272;5.136;2023-02-26T10:12:21;102656.91;;;4.90;48.23
64200;BME280;50516;52.272;5.136;2023-02-26T10:14:56;102654.94;;;4.84;48.54
64200;BME280;50516;52.272;5.136;2023-02-26T10:25:36;102675.94;;;5.20;48.03
64200;BME280;50516;52.272;5.136;2023-02-26T10:30:50;102689.94;;;5.17;48.10
64200;BME280;50516;52.272;5.136;2023-02-26T10:33:38;102688.88;;;5.18;48.11
64200;BME280;50516;52.272;5.136;2023-02-26T10:36:18;102685.66;;;5.29;48.10
64200;BME280;50516;52.272;5.136;2023-02-26T10:38:48;102696.72;;;5.43;48.04
64200;BME280;50516;52.272;5.136;2023-02-26T10:41:19;102689.88;;;5.32;48.48
64200;BME280;50516;52.272;5.136;2023-02-26T10:43:51;102703.91;;;5.14;48.49
64200;BME280;50516;52.272;5.136;2023-02-26T10:51:28;102700.59;;;5.55;48.56
64200;BME280;50516;52.272;5.136;2023-02-26T10:54:01;102712.25;;;5.64;48.70
64200;BME280;50516;52.272;5.136;2023-02-26T10:56:31;102705.22;;;5.55;49.00
64200;BME280;50516;52.272;5.136;2023-02-26T10:58:56;102702.44;;;5.48;49.19
64200;BME280;50516;52.272;5.136;2023-02-26T11:01:23;102719.53;;;5.42;49.53
64200;BME280;50516;52.272;5.136;2023-02-26T11:03:54;102710.88;;;5.53;49.63
64200;BME280;50516;52.272;5.136;2023-02-26T11:06:29;102703.63;;;5.60;49.56
64200;BME280;50516;52.272;5.136;2023-02-26T11:08:56;102717.38;;;5.74;48.85
64200;BME280;50516;52.272;5.136;2023-02-26T11:11:46;102701.78;;;5.67;48.52
64200;BME280;50516;52.272;5.136;2023-02-26T11:14:13;102712.56;;;5.76;48.57
64200;BME280;50516;52.272;5.136;2023-02-26T11:16:49;102706.28;;;5.75;48.41
64200;BME280;50516;52.272;5.136;2023-02-26T11:19:22;102714.31;;;5.62;49.04
64200;BME280;50516;52.272;5.136;2023-02-26T11:21:49;102715.94;;;5.56;49.15
64200;BME280;50516;52.272;5.136;2023-02-26T11:24:27;102713.41;;;5.55;49.38
64200;BME280;50516;52.272;5.136;2023-02-26T11:26:54;102716.75;;;5.57;48.75
64200;BME280;50516;52.272;5.136;2023-02-26T11:29:21;102711.28;;;5.72;48.88
64200;BME280;50516;52.272;5.136;2023-02-26T11:31:50;102710.34;;;5.86;48.44
64200;BME280;50516;52.272;5.136;2023-02-26T11:34:21;102727.44;;;5.95;48.50
64200;BME280;50516;52.272;5.136;2023-02-26T11:36:47;102693.81;;;5.88;47.93
64200;BME280;50516;52.272;5.136;2023-02-26T11:39:24;102711.91;;;5.95;48.44
64200;BME280;50516;52.272;5.136;2023-02-26T11:41:54;102713.91;;;6.01;47.80
64200;BME280;50516;52.272;5.136;2023-02-26T11:46:55;102705.31;;;6.05;47.64
64200;BME280;50516;52.272;5.136;2023-02-26T11:49:26;102708.41;;;6.23;47.70
64200;BME280;50516;52.272;5.136;2023-02-26T11:54:33;102710.31;;;6.22;47.88
64200;BME280;50516;52.272;5.136;2023-02-26T11:57:11;102705.69;;;6.23;47.87
64200;BME280;50516;52.272;5.136;2023-02-26T11:59:40;102711.91;;;6.38;47.47
64200;BME280;50516;52.272;5.136;2023-02-26T12:02:11;102705.25;;;6.48;47.54
64200;BME280;50516;52.272;5.136;2023-02-26T12:04:39;102702.34;;;6.49;47.92
64200;BME280;50516;52.272;5.136;2023-02-26T12:07:15;102711.03;;;6.66;47.51
64200;BME280;50516;52.272;5.136;2023-02-26T12:09:41;102696.94;;;6.34;48.35
64200;BME280;50516;52.272;5.136;2023-02-26T12:17:47;102706.75;;;6.85;47.21
64200;BME280;50516;52.272;5.136;2023-02-26T12:20:34;102710.13;;;6.94;46.87
64200;BME280;50516;52.272;5.136;2023-02-26T12:28:46;102706.44;;;7.08;46.54
64200;BME280;50516;52.272;5.136;2023-02-26T12:31:38;102705.53;;;7.43;46.73
64200;BME280;50516;52.272;5.136;2023-02-26T12:34:34;102701.16;;;7.68;45.80
64200;BME280;50516;52.272;5.136;2023-02-26T12:37:14;102709.34;;;7.55;44.56
64200;BME280;50516;52.272;5.136;2023-02-26T12:45:17;102704.97;;;6.71;44.89
64200;BME280;50516;52.272;5.136;2023-02-26T12:50:43;102696.06;;;6.55;45.43
64200;BME280;50516;52.272;5.136;2023-02-26T12:59:08;102702.97;;;6.51;45.52
64200;BME280;50516;52.272;5.136;2023-02-26T13:02:00;102695.50;;;6.67;44.96
64200;BME280;50516;52.272;5.136;2023-02-26T13:20:17;102678.13;;;7.23;46.42
64200;BME280;50516;52.272;5.136;2023-02-26T13:23:08;102688.66;;;7.26;46.15
64200;BME280;50516;52.272;5.136;2023-02-26T13:25:40;102688.63;;;6.78;47.89
64200;BME280;50516;52.272;5.136;2023-02-26T13:28:34;102687.75;;;6.70;48.37
64200;BME280;50516;52.272;5.136;2023-02-26T13:31:29;102682.19;;;6.92;48.61
64200;BME280;50516;52.272;5.136;2023-02-26T13:34:00;102686.28;;;7.09;48.30
64200;BME280;50516;52.272;5.136;2023-02-26T13:36:28;102678.69;;;7.05;47.26
64200;BME280;50516;52.272;5.136;2023-02-26T13:39:34;102691.50;;;7.04;48.03
64200;BME280;50516;52.272;5.136;2023-02-26T13:42:09;102692.25;;;6.50;48.44
64200;BME280;50516;52.272;5.136;2023-02-26T13:50:43;102677.16;;;6.95;48.87
64200;BME280;50516;52.272;5.136;2023-02-26T13:55:48;102686.59;;;6.86;50.23
64200;BME280;50516;52.272;5.136;2023-02-26T14:08:24;102683.09;;;6.64;49.71
64200;BME280;50516;52.272;5.136;2023-02-26T14:11:05;102687.81;;;6.49;50.32
64200;BME280;50516;52.272;5.136;2023-02-26T14:19:43;102684.78;;;6.65;49.85
64200;BME280;50516;52.272;5.136;2023-02-26T14:22:56;102691.53;;;6.69;49.98
64200;BME280;50516;52.272;5.136;2023-02-26T14:25:28;102685.63;;;6.66;49.99
64200;BME280;50516;52.272;5.136;2023-02-26T14:31:21;102693.31;;;6.55;50.63
64200;BME280;50516;52.272;5.136;2023-02-26T14:37:05;102688.16;;;6.67;50.03
64200;BME280;50516;52.272;5.136;2023-02-26T14:41:53;102705.69;;;6.51;49.86
64200;BME280;50516;52.272;5.136;2023-02-26T14:44:26;102697.91;;;6.48;49.72
64200;BME280;50516;52.272;5.136;2023-02-26T14:46:52;102703.13;;;6.43;49.81
64200;BME280;50516;52.272;5.136;2023-02-26T14:52:09;102692.25;;;6.50;49.79
64200;BME280;50516;52.272;5.136;2023-02-26T14:58:27;102691.66;;;6.54;48.22
64200;BME280;50516;52.272;5.136;2023-02-26T15:00:32;102697.16;;;6.61;48.13
64200;BME280;50516;52.272;5.136;2023-02-26T15:08:35;102703.03;;;6.65;49.78
64200;BME280;50516;52.272;5.136;2023-02-26T15:16:49;102703.53;;;6.18;49.80
64200;BME280;50516;52.272;5.136;2023-02-26T15:19:21;102701.38;;;6.35;49.36
64200;BME280;50516;52.272;5.136;2023-02-26T15:22:15;102709.13;;;6.32;49.32
64200;BME280;50516;52.272;5.136;2023-02-26T15:24:44;102703.31;;;6.42;49.66
64200;BME280;50516;52.272;5.136;2023-02-26T15:27:15;102698.91;;;6.40;49.72
64200;BME280;50516;52.272;5.136;2023-02-26T15:29:41;102702.91;;;6.16;50.82
64200;BME280;50516;52.272;5.136;2023-02-26T15:32:20;102712.88;;;6.02;51.65
64200;BME280;50516;52.272;5.136;2023-02-26T15:34:47;102723.50;;;6.19;51.53
64200;BME280;50516;52.272;5.136;2023-02-26T15:37:21;102721.81;;;6.18;50.27
64200;BME280;50516;52.272;5.136;2023-02-26T15:39:49;102719.06;;;6.18;50.29
64200;BME280;50516;52.272;5.136;2023-02-26T15:42:20;102718.16;;;6.32;50.52
64200;BME280;50516;52.272;5.136;2023-02-26T15:44:47;102718.34;;;6.31;51.04
64200;BME280;50516;52.272;5.136;2023-02-26T15:47:15;102720.63;;;6.27;51.60
64200;BME280;50516;52.272;5.136;2023-02-26T15:49:45;102720.44;;;6.29;51.78
64200;BME280;50516;52.272;5.136;2023-02-26T15:52:15;102720.97;;;6.17;52.13
64200;BME280;50516;52.272;5.136;2023-02-26T15:54:47;102724.91;;;6.15;52.34
64200;BME280;50516;52.272;5.136;2023-02-26T15:57:14;102725.16;;;6.20;52.48
64200;BME280;50516;52.272;5.136;2023-02-26T15:59:46;102721.81;;;6.18;52.92
64200;BME280;50516;52.272;5.136;2023-02-26T16:02:13;102725.16;;;6.20;53.22
64200;BME280;50516;52.272;5.136;2023-02-26T16:04:41;102715.81;;;5.86;54.02